sensor_id;sensor_type;location;lat;lon;timestamp;pressure;altitude;pressure_sealevel;temperature;humidity
32733;BME280;11867;51.198;11.966;2023-07-20T00:00:54;100111.03;;;17.48;100.00
32733;BME280;11867;51.198;11.966;2023-07-20T00:02:17;100117.75;;;17.68;100.00
32733;BME280;11867;51.198;11.966;2023-07-20T00:03:39;100113.44;;;17.88;100.00
32733;BME280;11867;51.198;11.966;2023-07-20T00:05:02;100111.22;;;17.73;100.00
32733;BME280;11867;51.198;11.966;2023-07-20T00:06:25;100114.56;;;17.87;100.00
32733;BME280;11867;51.198;11.966;2023-07-20T00:07:49;100113.09;;;18.11;100.00
32733;BME280;11867;51.198;11.966;2023-07-20T00:09:15;100105.41;;;18.17;100.00
32733;BME280;11867;51.198;11.966;2023-07-20T00:10:40;100105.41;;;17.95;100.00
32733;BME280;11867;51.198;11.966;2023-07-20T00:12:02;100099.56;;;17.97;100.00
32733;BME280;11867;51.198;11.966;2023-07-20T00:13:25;100098.91;;;18.21;100.00
32733;BME280;11867;51.198;11.966;2023-07-20T00:14:47;100100.38;;;17.98;100.00
32733;BME280;11867;51.198;11.966;2023-07-20T00:16:10;100095.97;;;17.46;100.00
32733;BME280;11867;51.198;11.966;2023-07-20T00:17:32;100099.56;;;17.08;100.00
32733;BME280;11867;51.198;11.966;2023-07-20T00:18:55;100100.66;;;17.15;100.00
32733;BME280;11867;51.198;11.966;2023-07-20T00:20:17;100104.00;;;17.30;100.00
32733;BME280;11867;51.198;11.966;2023-07-20T00:21:40;100102.81;;;17.40;100.00
32733;BME280;11867;51.198;11.966;2023-07-20T00:23:04;100102.59;;;17.53;100.00
32733;BME280;11867;51.198;11.966;2023-07-20T00:24:28;100101.34;;;17.72;100.00
32733;BME280;11867;51.198;11.966;2023-07-20T00:25:50;100092.22;;;17.50;100.00
32733;BME280;11867;51.198;11.966;2023-07-20T00:27:13;100089.47;;;17.21;100.00
32733;BME280;11867;51.198;11.966;2023-07-20T00:28:35;100085.66;;;17.64;100.00
32733;BME280;11867;51.198;11.966;2023-07-20T00:29:58;100086.78;;;17.92;100.00
32733;BME280;11867;51.198;11.966;2023-07-20T00:31:20;100088.13;;;17.86;100.00
32733;BME280;11867;51.198;11.966;2023-07-20T00:32:43;100097.13;;;17.95;100.00
32733;BME280;11867;51.198;11.966;2023-07-20T00:34:05;100098.63;;;17.93;100.00
32733;BME280;11867;51.198;11.966;2023-07-20T00:35:28;100097.81;;;17.92;100.00
32733;BME280;11867;51.198;11.966;2023-07-20T00:36:50;100100.19;;;17.73;100.00
32733;BME280;11867;51.198;11.966;2023-07-20T00:38:13;100096.84;;;17.67;100.00
32733;BME280;11867;51.198;11.966;2023-07-20T00:39:36;100100.75;;;17.87;100.00
32733;BME280;11867;51.198;11.966;2023-07-20T00:41:00;100104.00;;;18.10;100.00
32733;BME280;11867;51.198;11.966;2023-07-20T00:42:22;100097.66;;;18.31;100.00
32733;BME280;11867;51.198;11.966;2023-07-20T00:43:45;100098.25;;;18.37;100.00
32733;BME280;11867;51.198;11.966;2023-07-20T00:45:07;100101.25;;;18.31;100.00
32733;BME280;11867;51.198;11.966;2023-07-20T00:46:31;100104.13;;;18.14;100.00
32733;BME280;11867;51.198;11.966;2023-07-20T00:47:53;100089.22;;;18.15;100.00
32733;BME280;11867;51.198;11.966;2023-07-20T00:49:17;100093.00;;;18.23;100.00
32733;BME280;11867;51.198;11.966;2023-07-20T00:50:43;100097.00;;;18.34;100.00
32733;BME280;11867;51.198;11.966;2023-07-20T00:52:07;100092.41;;;18.38;100.00
32733;BME280;11867;51.198;11.966;2023-07-20T00:53:30;100088.38;;;18.14;100.00
32733;BME280;11867;51.198;11.966;2023-07-20T00:54:53;100092.53;;;18.21;100.00
32733;BME280;11867;51.198;11.966;2023-07-20T00:56:18;100092.03;;;18.27;100.00
32733;BME280;11867;51.198;11.966;2023-07-20T00:57:41;100091.28;;;18.18;100.00
32733;BME280;11867;51.198;11.966;2023-07-20T00:59:04;100093.91;;;18.35;100.00
32733;BME280;11867;51.198;11.966;2023-07-20T01:00:26;100087.91;;;18.46;100.00
32733;BME280;11867;51.198;11.966;2023-07-20T01:01:49;100091.94;;;18.36;100.00
32733;BME280;11867;51.198;11.966;2023-07-20T01:03:11;100084.50;;;18.49;100.00
32733;BME280;11867;51.198;11.966;2023-07-20T01:04:35;100081.03;;;18.52;99.30
32733;BME280;11867;51.198;11.966;2023-07-20T01:06:04;100082.28;;;18.42;99.71
32733;BME280;11867;51.198;11.966;2023-07-20T01:07:35;100082.66;;;18.53;98.98
32733;BME280;11867;51.198;11.966;2023-07-20T01:09:08;100087.75;;;18.63;98.23
32733;BME280;11867;51.198;11.966;2023-07-20T01:10:39;100085.59;;;18.69;97.63
32733;BME280;11867;51.198;11.966;2023-07-20T01:12:05;100087.31;;;18.73;97.31
32733;BME280;11867;51.198;11.966;2023-07-20T01:13:30;100094.28;;;18.80;97.29
32733;BME280;11867;51.198;11.966;2023-07-20T01:14:52;100089.50;;;18.68;97.59
32733;BME280;11867;51.198;11.966;2023-07-20T01:16:15;100091.03;;;18.44;98.47
32733;BME280;11867;51.198;11.966;2023-07-20T01:17:38;100090.50;;;18.51;98.85
32733;BME280;11867;51.198;11.966;2023-07-20T01:19:01;100097.38;;;18.45;98.35
32733;BME280;11867;51.198;11.966;2023-07-20T01:20:23;100091.16;;;18.48;98.06
32733;BME280;11867;51.198;11.966;2023-07-20T01:21:51;100093.22;;;18.18;99.92
32733;BME280;11867;51.198;11.966;2023-07-20T01:23:28;100091.03;;;17.81;100.00
32733;BME280;11867;51.198;11.966;2023-07-20T01:25:08;100094.97;;;17.80;100.00
32733;BME280;11867;51.198;11.966;2023-07-20T01:27:02;100091.19;;;17.64;100.00
32733;BME280;11867;51.198;11.966;2023-07-20T01:28:48;100093.09;;;17.93;100.00
32733;BME280;11867;51.198;11.966;2023-07-20T01:30:43;100085.94;;;17.71;100.00
32733;BME280;11867;51.198;11.966;2023-07-20T01:32:10;100087.94;;;17.62;100.00
32733;BME280;11867;51.198;11.966;2023-07-20T01:33:33;100080.25;;;17.46;100.00
32733;BME280;11867;51.198;11.966;2023-07-20T01:34:58;100088.56;;;17.38;100.00
32733;BME280;11867;51.198;11.966;2023-07-20T01:36:22;100090.63;;;17.49;100.00
32733;BME280;11867;51.198;11.966;2023-07-20T01:37:47;100090.78;;;17.74;100.00
32733;BME280;11867;51.198;11.966;2023-07-20T01:39:10;100090.84;;;17.65;100.00
32733;BME280;11867;51.198;11.966;2023-07-20T01:40:34;100089.09;;;17.82;100.00
32733;BME280;11867;51.198;11.966;2023-07-20T01:41:57;100093.59;;;17.65;100.00
32733;BME280;11867;51.198;11.966;2023-07-20T01:43:20;100091.66;;;17.66;100.00
32733;BME280;11867;51.198;11.966;2023-07-20T01:44:42;100095.81;;;17.42;100.00
32733;BME280;11867;51.198;11.966;2023-07-20T01:46:05;100086.66;;;17.29;100.00
32733;BME280;11867;51.198;11.966;2023-07-20T01:47:28;100089.50;;;17.42;100.00
32733;BME280;11867;51.198;11.966;2023-07-20T01:48:51;100099.78;;;17.62;100.00
32733;BME280;11867;51.198;11.966;2023-07-20T01:50:13;100087.78;;;17.58;100.00
32733;BME280;11867;51.198;11.966;2023-07-20T01:51:36;100094.50;;;17.78;100.00
32733;BME280;11867;51.198;11.966;2023-07-20T01:52:59;100090.38;;;17.63;100.00
32733;BME280;11867;51.198;11.966;2023-07-20T01:54:22;100090.13;;;17.47;100.00
32733;BME280;11867;51.198;11.966;2023-07-20T01:55:44;100088.03;;;17.44;100.00
32733;BME280;11867;51.198;11.966;2023-07-20T01:57:06;100090.03;;;17.65;100.00
32733;BME280;11867;51.198;11.966;2023-07-20T01:58:28;100089.84;;;17.40;100.00
32733;BME280;11867;51.198;11.966;2023-07-20T01:59:51;100089.28;;;17.55;100.00
32733;BME280;11867;51.198;11.966;2023-07-20T02:01:14;100094.94;;;17.59;100.00
32733;BME280;11867;51.198;11.966;2023-07-20T02:02:38;100089.25;;;17.34;100.00
32733;BME280;11867;51.198;11.966;2023-07-20T02:04:00;100093.53;;;17.44;100.00
32733;BME280;11867;51.198;11.966;2023-07-20T02:05:23;100089.94;;;17.23;100.00
32733;BME280;11867;51.198;11.966;2023-07-20T02:06:46;100092.75;;;17.14;100.00
32733;BME280;11867;51.198;11.966;2023-07-20T02:08:09;100095.78;;;17.21;100.00
32733;BME280;11867;51.198;11.966;2023-07-20T02:09:31;100090.53;;;16.99;100.00
32733;BME280;11867;51.198;11.966;2023-07-20T02:10:54;100096.47;;;17.09;100.00
32733;BME280;11867;51.198;11.966;2023-07-20T02:12:16;100095.34;;;17.10;100.00
32733;BME280;11867;51.198;11.966;2023-07-20T02:13:39;100094.59;;;16.92;100.00
32733;BME280;11867;51.198;11.966;2023-07-20T02:15:01;100101.41;;;16.86;100.00
32733;BME280;11867;51.198;11.966;2023-07-20T02:16:24;100101.19;;;17.09;100.00
32733;BME280;11867;51.198;11.966;2023-07-20T02:17:48;100105.97;;;16.82;100.00
32733;BME280;11867;51.198;11.966;2023-07-20T02:19:14;100100.56;;;16.94;100.00
32733;BME280;11867;51.198;11.966;2023-07-20T02:20:36;100099.56;;;17.08;100.00
32733;BME280;11867;51.198;11.966;2023-07-20T02:21:59;100105.50;;;17.19;100.00
32733;BME280;11867;51.198;11.966;2023-07-20T02:23:21;100098.31;;;17.35;100.00
32733;BME280;11867;51.198;11.966;2023-07-20T02:24:44;100101.44;;;17.25;100.00
32733;BME280;11867;51.198;11.966;2023-07-20T02:26:06;100100.97;;;17.23;100.00
32733;BME280;11867;51.198;11.966;2023-07-20T02:27:28;100106.16;;;17.24;100.00
32733;BME280;11867;51.198;11.966;2023-07-20T02:28:51;100111.94;;;17.31;100.00
32733;BME280;11867;51.198;11.966;2023-07-20T02:30:14;100105.84;;;17.17;100.00
32733;BME280;11867;51.198;11.966;2023-07-20T02:31:38;100104.31;;;17.37;100.00
32733;BME280;11867;51.198;11.966;2023-07-20T02:33:02;100110.22;;;17.18;100.00
32733;BME280;11867;51.198;11.966;2023-07-20T02:34:27;100108.56;;;17.26;100.00
32733;BME280;11867;51.198;11.966;2023-07-20T02:35:50;100112.38;;;17.42;100.00
32733;BME280;11867;51.198;11.966;2023-07-20T02:37:12;100109.97;;;17.41;100.00
32733;BME280;11867;51.198;11.966;2023-07-20T02:38:35;100106.44;;;17.31;100.00
32733;BME280;11867;51.198;11.966;2023-07-20T02:39:57;100111.72;;;17.45;100.00
32733;BME280;11867;51.198;11.966;2023-07-20T02:41:20;100107.06;;;17.37;100.00
32733;BME280;11867;51.198;11.966;2023-07-20T02:42:42;100105.44;;;17.36;100.00
32733;BME280;11867;51.198;11.966;2023-07-20T02:44:05;100106.78;;;17.21;100.00
32733;BME280;11867;51.198;11.966;2023-07-20T02:45:27;100117.66;;;17.26;100.00
32733;BME280;11867;51.198;11.966;2023-07-20T02:46:50;100115.31;;;17.37;100.00
32733;BME280;11867;51.198;11.966;2023-07-20T02:48:13;100121.66;;;16.99;100.00
32733;BME280;11867;51.198;11.966;2023-07-20T02:49:36;100119.47;;;17.13;100.00
32733;BME280;11867;51.198;11.966;2023-07-20T02:50:58;100118.56;;;17.39;100.00
32733;BME280;11867;51.198;11.966;2023-07-20T02:52:21;100116.59;;;17.40;100.00
32733;BME280;11867;51.198;11.966;2023-07-20T02:53:43;100120.78;;;17.46;100.00
32733;BME280;11867;51.198;11.966;2023-07-20T02:55:07;100115.75;;;17.48;100.00
32733;BME280;11867;51.198;11.966;2023-07-20T02:56:29;100123.31;;;17.60;100.00
32733;BME280;11867;51.198;11.966;2023-07-20T02:57:52;100121.88;;;17.53;100.00
32733;BME280;11867;51.198;11.966;2023-07-20T02:59:14;100125.84;;;17.65;100.00
32733;BME280;11867;51.198;11.966;2023-07-20T03:00:37;100125.69;;;17.70;100.00
32733;BME280;11867;51.198;11.966;2023-07-20T03:01:59;100115.66;;;17.65;100.00
32733;BME280;11867;51.198;11.966;2023-07-20T03:03:24;100123.50;;;17.84;100.00
32733;BME280;11867;51.198;11.966;2023-07-20T03:04:46;100112.97;;;17.86;99.98
32733;BME280;11867;51.198;11.966;2023-07-20T03:06:09;100115.97;;;17.93;99.02
32733;BME280;11867;51.198;11.966;2023-07-20T03:07:31;100116.78;;;17.64;100.00
32733;BME280;11867;51.198;11.966;2023-07-20T03:08:54;100100.47;;;17.59;100.00
32733;BME280;11867;51.198;11.966;2023-07-20T03:10:16;100107.72;;;17.64;100.00
32733;BME280;11867;51.198;11.966;2023-07-20T03:11:39;100114.72;;;17.61;100.00
32733;BME280;11867;51.198;11.966;2023-07-20T03:13:01;100119.97;;;17.75;100.00
32733;BME280;11867;51.198;11.966;2023-07-20T03:14:24;100121.22;;;17.78;100.00
32733;BME280;11867;51.198;11.966;2023-07-20T03:15:46;100116.53;;;17.78;100.00
32733;BME280;11867;51.198;11.966;2023-07-20T03:17:09;100123.84;;;17.83;100.00
32733;BME280;11867;51.198;11.966;2023-07-20T03:18:33;100117.47;;;17.91;99.45
32733;BME280;11867;51.198;11.966;2023-07-20T03:19:56;100119.88;;;17.63;100.00
32733;BME280;11867;51.198;11.966;2023-07-20T03:21:18;100126.41;;;17.79;100.00
32733;BME280;11867;51.198;11.966;2023-07-20T03:22:41;100122.06;;;17.48;100.00
32733;BME280;11867;51.198;11.966;2023-07-20T03:24:03;100127.72;;;17.13;100.00
32733;BME280;11867;51.198;11.966;2023-07-20T03:25:26;100121.84;;;17.24;100.00
32733;BME280;11867;51.198;11.966;2023-07-20T03:26:49;100130.06;;;17.41;100.00
32733;BME280;11867;51.198;11.966;2023-07-20T03:28:12;100127.81;;;17.34;100.00
32733;BME280;11867;51.198;11.966;2023-07-20T03:29:34;100133.09;;;17.48;100.00
32733;BME280;11867;51.198;11.966;2023-07-20T03:30:58;100130.00;;;17.50;100.00
32733;BME280;11867;51.198;11.966;2023-07-20T03:32:20;100129.94;;;17.59;100.00
32733;BME280;11867;51.198;11.966;2023-07-20T03:33:44;100137.31;;;17.84;100.00
32733;BME280;11867;51.198;11.966;2023-07-20T03:35:07;100146.13;;;17.99;100.00
32733;BME280;11867;51.198;11.966;2023-07-20T03:36:30;100144.72;;;17.92;100.00
32733;BME280;11867;51.198;11.966;2023-07-20T03:37:54;100146.06;;;17.86;100.00
32733;BME280;11867;51.198;11.966;2023-07-20T03:39:16;100145.41;;;17.81;100.00
32733;BME280;11867;51.198;11.966;2023-07-20T03:40:39;100156.53;;;17.93;100.00
32733;BME280;11867;51.198;11.966;2023-07-20T03:42:01;100155.69;;;17.71;100.00
32733;BME280;11867;51.198;11.966;2023-07-20T03:43:25;100155.34;;;17.43;100.00
32733;BME280;11867;51.198;11.966;2023-07-20T03:44:47;100158.47;;;17.33;100.00
32733;BME280;11867;51.198;11.966;2023-07-20T03:46:10;100160.06;;;17.34;100.00
32733;BME280;11867;51.198;11.966;2023-07-20T03:47:32;100149.38;;;17.32;100.00
32733;BME280;11867;51.198;11.966;2023-07-20T03:48:56;100152.06;;;17.50;100.00
32733;BME280;11867;51.198;11.966;2023-07-20T03:50:18;100148.28;;;17.54;100.00
32733;BME280;11867;51.198;11.966;2023-07-20T03:51:41;100144.03;;;17.66;100.00
32733;BME280;11867;51.198;11.966;2023-07-20T03:53:03;100140.41;;;17.44;100.00
32733;BME280;11867;51.198;11.966;2023-07-20T03:54:28;100138.09;;;17.55;100.00
32733;BME280;11867;51.198;11.966;2023-07-20T03:55:52;100139.00;;;17.29;100.00
32733;BME280;11867;51.198;11.966;2023-07-20T03:57:14;100146.59;;;17.41;100.00
32733;BME280;11867;51.198;11.966;2023-07-20T03:58:37;100150.81;;;17.39;100.00
32733;BME280;11867;51.198;11.966;2023-07-20T03:59:59;100146.47;;;17.29;100.00
32733;BME280;11867;51.198;11.966;2023-07-20T04:01:22;100146.38;;;17.46;100.00
32733;BME280;11867;51.198;11.966;2023-07-20T04:02:44;100141.94;;;17.33;100.00
32733;BME280;11867;51.198;11.966;2023-07-20T04:04:09;100142.84;;;16.99;100.00
32733;BME280;11867;51.198;11.966;2023-07-20T04:05:31;100142.56;;;16.91;100.00
32733;BME280;11867;51.198;11.966;2023-07-20T04:06:54;100142.09;;;16.81;100.00
32733;BME280;11867;51.198;11.966;2023-07-20T04:08:17;100149.50;;;16.98;100.00
32733;BME280;11867;51.198;11.966;2023-07-20T04:09:39;100142.78;;;17.25;100.00
32733;BME280;11867;51.198;11.966;2023-07-20T04:11:02;100140.34;;;17.23;100.00
32733;BME280;11867;51.198;11.966;2023-07-20T04:12:24;100143.16;;;17.06;100.00
32733;BME280;11867;51.198;11.966;2023-07-20T04:13:47;100141.41;;;17.01;100.00
32733;BME280;11867;51.198;11.966;2023-07-20T04:15:09;100148.69;;;17.06;100.00
32733;BME280;11867;51.198;11.966;2023-07-20T04:16:33;100148.69;;;16.80;100.00
32733;BME280;11867;51.198;11.966;2023-07-20T04:17:55;100152.56;;;17.05;100.00
32733;BME280;11867;51.198;11.966;2023-07-20T04:19:19;100147.44;;;17.33;100.00
32733;BME280;11867;51.198;11.966;2023-07-20T04:20:41;100149.50;;;17.45;100.00
32733;BME280;11867;51.198;11.966;2023-07-20T04:22:05;100153.91;;;17.37;100.00
32733;BME280;11867;51.198;11.966;2023-07-20T04:23:27;100158.94;;;17.35;100.00
32733;BME280;11867;51.198;11.966;2023-07-20T04:24:50;100153.28;;;17.31;100.00
32733;BME280;11867;51.198;11.966;2023-07-20T04:26:13;100156.22;;;17.18;100.00
32733;BME280;11867;51.198;11.966;2023-07-20T04:27:36;100159.06;;;16.74;100.00
32733;BME280;11867;51.198;11.966;2023-07-20T04:28:59;100163.97;;;16.68;100.00
32733;BME280;11867;51.198;11.966;2023-07-20T04:30:22;100165.38;;;17.01;100.00
32733;BME280;11867;51.198;11.966;2023-07-20T04:31:44;100160.63;;;17.19;100.00
32733;BME280;11867;51.198;11.966;2023-07-20T04:33:07;100162.91;;;17.17;100.00
32733;BME280;11867;51.198;11.966;2023-07-20T04:34:31;100159.56;;;17.41;100.00
32733;BME280;11867;51.198;11.966;2023-07-20T04:35:59;100159.31;;;17.54;100.00
32733;BME280;11867;51.198;11.966;2023-07-20T04:37:21;100154.75;;;17.59;100.00
32733;BME280;11867;51.198;11.966;2023-07-20T04:38:44;100149.97;;;17.47;100.00
32733;BME280;11867;51.198;11.966;2023-07-20T04:40:08;100158.75;;;17.40;100.00
32733;BME280;11867;51.198;11.966;2023-07-20T04:41:31;100156.97;;;17.35;100.00
32733;BME280;11867;51.198;11.966;2023-07-20T04:42:55;100152.75;;;17.38;100.00
32733;BME280;11867;51.198;11.966;2023-07-20T04:44:18;100153.59;;;17.30;100.00
32733;BME280;11867;51.198;11.966;2023-07-20T04:45:40;100163.06;;;17.11;100.00
32733;BME280;11867;51.198;11.966;2023-07-20T04:47:04;100155.28;;;17.13;100.00
32733;BME280;11867;51.198;11.966;2023-07-20T04:48:26;100154.56;;;17.34;100.00
32733;BME280;11867;51.198;11.966;2023-07-20T04:49:50;100158.81;;;17.23;100.00
32733;BME280;11867;51.198;11.966;2023-07-20T04:51:12;100158.88;;;17.44;100.00
32733;BME280;11867;51.198;11.966;2023-07-20T04:52:35;100164.69;;;17.12;100.00
32733;BME280;11867;51.198;11.966;2023-07-20T04:54:04;100163.25;;;17.06;100.00
32733;BME280;11867;51.198;11.966;2023-07-20T04:55:26;100168.91;;;17.10;100.00
32733;BME280;11867;51.198;11.966;2023-07-20T04:56:48;100169.53;;;17.15;100.00
32733;BME280;11867;51.198;11.966;2023-07-20T04:58:12;100166.88;;;17.37;100.00
32733;BME280;11867;51.198;11.966;2023-07-20T04:59:34;100165.50;;;17.51;100.00
32733;BME280;11867;51.198;11.966;2023-07-20T05:00:57;100164.06;;;17.75;100.00
32733;BME280;11867;51.198;11.966;2023-07-20T05:02:19;100160.09;;;17.93;100.00
32733;BME280;11867;51.198;11.966;2023-07-20T05:03:42;100170.91;;;18.07;100.00
32733;BME280;11867;51.198;11.966;2023-07-20T05:05:07;100170.50;;;18.18;100.00
32733;BME280;11867;51.198;11.966;2023-07-20T05:06:30;100172.16;;;18.31;100.00
32733;BME280;11867;51.198;11.966;2023-07-20T05:07:52;100177.16;;;18.38;100.00
32733;BME280;11867;51.198;11.966;2023-07-20T05:09:16;100172.63;;;18.33;100.00
32733;BME280;11867;51.198;11.966;2023-07-20T05:10:39;100172.56;;;18.21;100.00
32733;BME280;11867;51.198;11.966;2023-07-20T05:12:01;100174.53;;;18.20;100.00
32733;BME280;11867;51.198;11.966;2023-07-20T05:13:24;100166.13;;;18.38;100.00
32733;BME280;11867;51.198;11.966;2023-07-20T05:14:46;100172.84;;;18.49;100.00
32733;BME280;11867;51.198;11.966;2023-07-20T05:16:09;100168.03;;;18.58;98.89
32733;BME280;11867;51.198;11.966;2023-07-20T05:17:31;100167.94;;;18.54;98.15
32733;BME280;11867;51.198;11.966;2023-07-20T05:18:54;100171.94;;;18.57;97.91
32733;BME280;11867;51.198;11.966;2023-07-20T05:20:20;100168.81;;;18.46;97.86
32733;BME280;11867;51.198;11.966;2023-07-20T05:21:43;100163.94;;;18.43;97.41
32733;BME280;11867;51.198;11.966;2023-07-20T05:23:05;100168.72;;;18.55;97.34
32733;BME280;11867;51.198;11.966;2023-07-20T05:24:28;100174.28;;;18.67;97.29
32733;BME280;11867;51.198;11.966;2023-07-20T05:25:54;100176.41;;;18.49;97.71
32733;BME280;11867;51.198;11.966;2023-07-20T05:27:17;100180.16;;;18.66;97.42
32733;BME280;11867;51.198;11.966;2023-07-20T05:28:39;100180.44;;;18.73;97.47
32733;BME280;11867;51.198;11.966;2023-07-20T05:30:03;100185.66;;;18.87;97.29
32733;BME280;11867;51.198;11.966;2023-07-20T05:31:25;100183.59;;;18.84;96.38
32733;BME280;11867;51.198;11.966;2023-07-20T05:38:15;100165.19;;;18.88;97.10
32733;BME280;11867;51.198;11.966;2023-07-20T05:39:38;100166.94;;;18.71;95.97
32733;BME280;11867;51.198;11.966;2023-07-20T05:41:00;100162.94;;;18.48;98.13
32733;BME280;11867;51.198;11.966;2023-07-20T05:42:25;100161.72;;;18.58;99.25
32733;BME280;11867;51.198;11.966;2023-07-20T05:43:47;100164.19;;;18.71;98.76
32733;BME280;11867;51.198;11.966;2023-07-20T05:45:10;100157.50;;;18.72;98.67
32733;BME280;11867;51.198;11.966;2023-07-20T05:46:32;100164.34;;;18.54;100.00
32733;BME280;11867;51.198;11.966;2023-07-20T05:48:11;100166.28;;;18.53;100.00
32733;BME280;11867;51.198;11.966;2023-07-20T05:49:35;100168.34;;;18.78;100.00
32733;BME280;11867;51.198;11.966;2023-07-20T05:50:58;100166.09;;;18.80;98.78
32733;BME280;11867;51.198;11.966;2023-07-20T05:52:21;100165.00;;;18.72;98.83
32733;BME280;11867;51.198;11.966;2023-07-20T05:53:44;100169.47;;;18.43;100.00
32733;BME280;11867;51.198;11.966;2023-07-20T05:55:08;100167.50;;;18.44;100.00
32733;BME280;11867;51.198;11.966;2023-07-20T05:56:30;100168.06;;;18.37;100.00
32733;BME280;11867;51.198;11.966;2023-07-20T05:57:52;100178.28;;;18.37;100.00
32733;BME280;11867;51.198;11.966;2023-07-20T05:59:17;100174.19;;;18.43;100.00
32733;BME280;11867;51.198;11.966;2023-07-20T06:00:43;100170.59;;;18.63;100.00
32733;BME280;11867;51.198;11.966;2023-07-20T06:02:06;100171.91;;;18.78;99.43
32733;BME280;11867;51.198;11.966;2023-07-20T06:03:29;100177.19;;;18.92;98.46
32733;BME280;11867;51.198;11.966;2023-07-20T06:04:51;100179.19;;;18.83;98.41
32733;BME280;11867;51.198;11.966;2023-07-20T06:06:14;100177.63;;;18.94;98.35
32733;BME280;11867;51.198;11.966;2023-07-20T06:07:37;100180.91;;;19.08;97.28
32733;BME280;11867;51.198;11.966;2023-07-20T06:09:01;100178.59;;;19.10;95.86
32733;BME280;11867;51.198;11.966;2023-07-20T06:10:25;100178.09;;;18.96;97.38
32733;BME280;11867;51.198;11.966;2023-07-20T06:11:49;100180.28;;;18.90;96.44
32733;BME280;11867;51.198;11.966;2023-07-20T06:13:12;100182.13;;;18.99;95.75
32733;BME280;11867;51.198;11.966;2023-07-20T06:14:36;100184.47;;;19.09;95.05
32733;BME280;11867;51.198;11.966;2023-07-20T06:15:58;100181.84;;;19.12;95.52
32733;BME280;11867;51.198;11.966;2023-07-20T06:17:21;100177.97;;;18.92;96.29
32733;BME280;11867;51.198;11.966;2023-07-20T06:18:43;100179.34;;;18.86;95.89
32733;BME280;11867;51.198;11.966;2023-07-20T06:20:08;100180.84;;;18.63;98.87
32733;BME280;11867;51.198;11.966;2023-07-20T06:21:30;100178.25;;;18.79;97.77
32733;BME280;11867;51.198;11.966;2023-07-20T06:22:53;100175.69;;;18.94;98.24
32733;BME280;11867;51.198;11.966;2023-07-20T06:24:16;100179.97;;;19.04;97.50
32733;BME280;11867;51.198;11.966;2023-07-20T06:25:39;100181.34;;;18.98;97.33
32733;BME280;11867;51.198;11.966;2023-07-20T06:27:01;100183.09;;;19.15;97.51
32733;BME280;11867;51.198;11.966;2023-07-20T06:28:24;100188.28;;;19.17;97.20
32733;BME280;11867;51.198;11.966;2023-07-20T06:29:46;100184.84;;;19.32;97.09
32733;BME280;11867;51.198;11.966;2023-07-20T06:31:09;100178.88;;;19.42;96.30
32733;BME280;11867;51.198;11.966;2023-07-20T06:32:31;100174.97;;;19.68;94.18
32733;BME280;11867;51.198;11.966;2023-07-20T06:33:54;100167.03;;;19.91;93.99
32733;BME280;11867;51.198;11.966;2023-07-20T06:35:17;100174.03;;;20.01;93.01
32733;BME280;11867;51.198;11.966;2023-07-20T06:36:39;100161.94;;;20.05;92.57
32733;BME280;11867;51.198;11.966;2023-07-20T06:38:02;100168.75;;;19.95;91.31
32733;BME280;11867;51.198;11.966;2023-07-20T06:39:30;100168.44;;;19.85;92.39
32733;BME280;11867;51.198;11.966;2023-07-20T06:40:56;100162.28;;;20.04;92.25
32733;BME280;11867;51.198;11.966;2023-07-20T06:42:18;100162.22;;;20.28;91.19
32733;BME280;11867;51.198;11.966;2023-07-20T06:43:41;100165.59;;;20.50;90.02
32733;BME280;11867;51.198;11.966;2023-07-20T06:45:06;100170.66;;;20.60;89.44
32733;BME280;11867;51.198;11.966;2023-07-20T06:46:30;100168.09;;;20.67;89.10
32733;BME280;11867;51.198;11.966;2023-07-20T06:47:52;100169.19;;;20.79;88.63
32733;BME280;11867;51.198;11.966;2023-07-20T06:49:24;100172.75;;;20.10;90.09
32733;BME280;11867;51.198;11.966;2023-07-20T06:50:46;100184.53;;;19.58;92.34
32733;BME280;11867;51.198;11.966;2023-07-20T06:52:09;100181.91;;;19.74;93.50
32733;BME280;11867;51.198;11.966;2023-07-20T06:53:32;100178.00;;;19.75;92.48
32733;BME280;11867;51.198;11.966;2023-07-20T06:54:55;100179.25;;;19.78;91.96
32733;BME280;11867;51.198;11.966;2023-07-20T06:56:22;100180.13;;;19.69;92.68
32733;BME280;11867;51.198;11.966;2023-07-20T06:57:47;100177.50;;;19.48;93.51
32733;BME280;11867;51.198;11.966;2023-07-20T06:59:10;100181.69;;;19.79;93.85
32733;BME280;11867;51.198;11.966;2023-07-20T07:00:33;100175.53;;;19.98;91.93
32733;BME280;11867;51.198;11.966;2023-07-20T07:01:55;100173.94;;;20.09;90.77
32733;BME280;11867;51.198;11.966;2023-07-20T07:03:18;100173.28;;;20.28;90.44
32733;BME280;11867;51.198;11.966;2023-07-20T07:04:41;100172.81;;;20.39;88.36
32733;BME280;11867;51.198;11.966;2023-07-20T07:06:05;100168.41;;;20.38;88.43
32733;BME280;11867;51.198;11.966;2023-07-20T07:07:27;100173.16;;;20.37;88.56
32733;BME280;11867;51.198;11.966;2023-07-20T07:08:50;100176.69;;;20.50;87.85
32733;BME280;11867;51.198;11.966;2023-07-20T07:10:13;100178.19;;;20.47;87.34
32733;BME280;11867;51.198;11.966;2023-07-20T07:11:36;100168.13;;;20.55;86.78
32733;BME280;11867;51.198;11.966;2023-07-20T07:12:58;100177.25;;;20.55;86.59